createdAt,value
2018-03-01T00:00:27.332Z,44
2018-03-01T00:01:25.907Z,44
2018-03-01T00:02:24.582Z,44
2018-03-01T00:03:23.270Z,44
2018-03-01T00:04:21.831Z,44
2018-03-01T00:05:20.300Z,44
2018-03-01T00:06:18.874Z,44
2018-03-01T00:07:17.448Z,44
2018-03-01T00:08:16.123Z,44
2018-03-01T00:09:14.697Z,44
2018-03-01T00:10:13.285Z,44
2018-03-01T00:11:11.945Z,44
2018-03-01T00:12:10.417Z,44
2018-03-01T00:13:09.108Z,44
2018-03-01T00:14:07.768Z,44
2018-03-01T00:15:06.242Z,44
2018-03-01T00:16:04.812Z,44
2018-03-01T00:17:03.383Z,44
2018-03-01T00:18:01.958Z,44
2018-03-01T00:19:00.634Z,44
2018-03-01T00:19:59.206Z,44
2018-03-01T00:20:57.780Z,44
2018-03-01T00:21:56.353Z,44
2018-03-01T00:22:54.928Z,44
2018-03-01T00:23:53.504Z,44
2018-03-01T00:24:52.175Z,44
2018-03-01T00:25:50.771Z,44
2018-03-01T00:26:49.323Z,44
2018-03-01T00:27:47.895Z,44
2018-03-01T00:28:46.468Z,44
2018-03-01T00:29:45.041Z,45
2018-03-01T00:30:43.734Z,44
2018-03-01T00:31:42.297Z,45
2018-03-01T00:32:40.866Z,44
2018-03-01T00:33:39.437Z,45
2018-03-01T00:34:38.113Z,44
2018-03-01T00:35:36.709Z,44
2018-03-01T00:36:35.259Z,44
2018-03-01T00:37:33.837Z,45
2018-03-01T00:38:32.410Z,45
2018-03-01T00:39:30.978Z,45
2018-03-01T00:40:29.568Z,45
2018-03-01T00:41:28.244Z,45
2018-03-01T00:42:26.818Z,45
2018-03-01T00:43:25.389Z,45
2018-03-01T00:44:23.947Z,45
2018-03-01T00:45:22.528Z,45
2018-03-01T00:46:21.093Z,45
2018-03-01T00:47:19.772Z,45
2018-03-01T00:48:18.343Z,45
2018-03-01T00:49:16.916Z,45
2018-03-01T00:50:15.489Z,45
2018-03-01T00:51:14.063Z,45
2018-03-01T00:52:12.636Z,45
2018-03-01T00:53:11.312Z,45
2018-03-01T00:54:09.884Z,45
2018-03-01T00:55:08.457Z,45
2018-03-01T00:56:07.046Z,45
2018-03-01T00:57:05.604Z,45
2018-03-01T00:58:04.176Z,45
2018-03-01T00:59:02.853Z,45
2018-03-01T01:00:01.426Z,45
2018-03-01T01:01:00.000Z,45
2018-03-01T01:01:58.575Z,45
2018-03-01T01:02:57.147Z,45
2018-03-01T01:03:55.719Z,45
2018-03-01T01:04:54.397Z,44
2018-03-01T01:05:53.073Z,45
2018-03-01T01:06:51.541Z,45
2018-03-01T01:07:50.114Z,45
2018-03-01T01:08:48.689Z,45
2018-03-01T01:09:47.262Z,45
2018-03-01T01:10:45.941Z,45
2018-03-01T16:01:28.794Z,43
2018-03-01T16:02:27.367Z,41
2018-03-01T16:03:26.041Z,40
2018-03-01T16:04:24.716Z,39
2018-03-01T16:05:23.187Z,39
2018-03-01T16:06:21.776Z,38
2018-03-01T16:07:20.350Z,38
2018-03-01T16:08:18.907Z,37
2018-03-01T16:09:17.588Z,37
2018-03-01T16:10:16.181Z,37
2018-03-01T16:11:14.744Z,36
2018-03-01T16:12:13.324Z,36
2018-03-01T16:13:11.875Z,36
2018-03-01T16:14:10.451Z,36
2018-03-01T16:15:09.023Z,36
2018-03-01T16:16:07.714Z,36
2018-03-01T16:17:06.287Z,36
2018-03-01T16:18:04.860Z,36
2018-03-01T16:19:03.468Z,36
2018-03-01T16:20:01.990Z,36
2018-03-01T16:21:00.667Z,36
2018-03-01T16:21:59.256Z,36
2018-03-01T16:22:57.829Z,36
2018-03-01T16:23:56.401Z,36
2018-03-01T16:24:54.958Z,36
2018-03-01T16:25:53.738Z,36
2018-03-01T16:26:52.210Z,36
2018-03-01T16:27:50.788Z,36
2018-03-01T16:28:49.354Z,36
2018-03-01T16:29:48.030Z,36
2018-03-01T16:30:46.543Z,36
2018-03-01T16:31:45.074Z,36
2018-03-01T16:32:43.749Z,36
2018-03-01T16:33:42.323Z,36
2018-03-01T16:34:40.897Z,36
2018-03-01T16:35:39.472Z,36
2018-03-01T16:36:38.044Z,36
2018-03-01T16:37:36.616Z,36
2018-03-01T16:38:35.294Z,36
2018-03-01T16:39:33.866Z,36
2018-03-01T16:40:32.438Z,36
2018-03-01T16:41:31.012Z,36
2018-03-01T16:42:29.585Z,36
2018-03-01T16:43:28.157Z,36
2018-03-01T16:44:26.836Z,36
2018-03-01T16:45:25.407Z,36
2018-03-01T16:46:23.980Z,36
2018-03-01T16:47:22.552Z,36
2018-03-01T16:48:21.127Z,36
2018-03-01T16:49:19.724Z,36
2018-03-01T16:50:18.379Z,36
2018-03-01T16:51:16.950Z,36
2018-03-01T16:52:15.522Z,36
2018-03-01T16:53:14.096Z,36
2018-03-01T16:54:12.667Z,36
2018-03-01T16:55:11.241Z,36
2018-03-01T16:56:09.918Z,36
2018-03-01T16:57:08.490Z,36
2018-03-01T16:58:07.064Z,36
2018-03-01T16:59:05.639Z,36
2018-03-01T17:00:04.214Z,36
2018-03-01T17:01:02.783Z,36
2018-03-01T17:02:01.667Z,36
2018-03-01T17:03:00.054Z,36
2018-03-01T17:03:58.606Z,36
2018-03-01T17:04:57.179Z,36
2018-03-01T17:05:55.751Z,36
2018-03-01T17:06:54.430Z,36
2018-03-01T17:07:53.000Z,36
2018-03-01T17:08:51.798Z,36
2018-03-01T17:09:50.250Z,36
2018-03-01T17:10:48.721Z,36
2018-03-01T17:11:47.294Z,36
2018-03-01T17:12:45.976Z,36
2018-03-01T17:13:44.542Z,36
2018-03-01T17:14:43.218Z,36
2018-03-01T17:15:41.689Z,36
2018-03-01T17:16:40.265Z,36
2018-03-01T17:17:38.836Z,36
2018-03-01T17:18:37.629Z,36
2018-03-01T17:19:36.186Z,36
2018-03-01T17:20:34.657Z,36
2018-03-01T17:21:33.277Z,36
2018-03-01T17:22:31.809Z,37
2018-03-01T17:23:30.378Z,37
2018-03-01T17:24:29.171Z,37
2018-03-01T17:25:27.626Z,37
2018-03-01T17:26:26.319Z,37
2018-03-01T17:27:24.773Z,37
2018-03-01T17:28:23.346Z,37
2018-03-01T17:29:21.922Z,37
2018-03-01T17:30:20.604Z,37
2018-03-01T17:31:19.168Z,37
2018-03-01T17:32:17.742Z,37
2018-03-01T17:33:16.314Z,37
2018-03-01T17:34:14.886Z,37
2018-03-01T17:35:13.461Z,37
2018-03-01T17:36:12.136Z,37
2018-03-01T17:37:10.726Z,37
2018-03-01T17:38:09.283Z,37
2018-03-01T17:39:07.857Z,37
2018-03-01T17:40:06.449Z,37
2018-03-01T17:41:05.001Z,37
2018-03-01T17:42:03.678Z,37
2018-03-01T17:43:02.256Z,37
2018-03-01T17:44:00.825Z,37
2018-03-01T17:44:59.398Z,37
2018-03-01T17:45:58.074Z,37
2018-03-01T17:46:56.647Z,38
2018-03-01T17:47:55.329Z,38
2018-03-01T17:48:53.799Z,38
2018-03-01T17:49:52.373Z,38
2018-03-01T17:50:50.940Z,38
2018-03-01T17:51:49.512Z,38
2018-03-01T17:52:48.188Z,38
2018-03-01T17:53:46.762Z,38
2018-03-01T17:54:45.348Z,38
2018-03-01T17:55:43.908Z,38
2018-03-01T17:56:42.481Z,38
2018-03-01T17:57:41.077Z,38
2018-03-01T17:58:39.730Z,38
2018-03-01T17:59:38.304Z,38
2018-03-01T18:00:36.878Z,38
2018-03-01T18:01:35.450Z,38
2018-03-01T18:02:34.022Z,38
2018-03-01T18:03:32.596Z,38
2018-03-01T18:04:31.288Z,38
2018-03-01T18:05:29.846Z,38
2018-03-01T18:06:28.529Z,38
2018-03-01T18:07:26.992Z,38
2018-03-01T18:08:25.565Z,38
2018-03-01T18:09:24.240Z,38
2018-03-01T18:10:22.818Z,38
2018-03-01T18:11:21.387Z,38
2018-03-01T18:12:19.963Z,38
2018-03-01T18:13:18.535Z,38
2018-03-01T18:14:17.130Z,38
2018-03-01T18:15:15.682Z,38
2018-03-01T18:16:14.357Z,38
2018-03-01T18:17:12.954Z,38
2018-03-01T18:18:11.503Z,38
2018-03-01T18:19:10.179Z,38
2018-03-01T18:20:08.651Z,38
2018-03-01T18:21:07.225Z,38
2018-03-01T18:22:05.930Z,38
2018-03-01T18:23:04.491Z,38
2018-03-01T18:24:03.046Z,38
2018-03-01T18:25:01.723Z,38
2018-03-01T18:26:00.192Z,38
2018-03-01T18:26:58.764Z,38
2018-03-01T18:27:57.448Z,38
2018-03-01T18:28:56.034Z,38
2018-03-01T18:29:54.589Z,38
2018-03-01T18:30:53.159Z,38
2018-03-01T18:31:51.761Z,38
2018-03-01T18:32:50.409Z,38
2018-03-01T18:33:48.981Z,38
2018-03-01T18:34:47.554Z,38
2018-03-01T18:35:46.128Z,38
2018-03-01T18:36:44.701Z,38
2018-03-01T18:37:43.274Z,38
2018-03-01T18:38:41.951Z,38
2018-03-01T18:39:40.625Z,38
2018-03-01T18:40:39.096Z,38
2018-03-01T18:41:37.703Z,38
2018-03-01T18:42:36.243Z,38
2018-03-01T18:43:34.816Z,38
2018-03-01T18:44:33.492Z,38
2018-03-01T18:45:32.067Z,38
2018-03-01T18:46:30.653Z,38
2018-03-01T18:47:29.211Z,38
2018-03-01T18:48:27.786Z,38
2018-03-01T18:49:26.360Z,38
2018-03-01T18:50:25.034Z,38
2018-03-01T18:51:23.613Z,38
2018-03-01T18:52:22.181Z,38
2018-03-01T18:53:20.769Z,38
2018-03-01T18:54:19.326Z,38
2018-03-01T18:55:17.899Z,38
2018-03-01T18:56:16.581Z,38
2018-03-01T18:57:15.150Z,38
2018-03-01T18:58:13.722Z,38
2018-03-01T18:59:12.295Z,38
2018-03-01T19:00:10.872Z,38
2018-03-01T19:01:09.443Z,38
2018-03-01T19:02:08.184Z,38
2018-03-01T19:03:06.690Z,38
2018-03-01T19:04:05.264Z,38
2018-03-01T19:05:03.838Z,38
2018-03-01T19:06:02.410Z,38
2018-03-01T19:07:00.983Z,38
2018-03-01T19:07:59.660Z,38
2018-03-01T19:08:58.232Z,38
2018-03-01T19:09:56.807Z,37
2018-03-01T19:10:55.497Z,37
2018-03-01T19:11:53.956Z,37
2018-03-01T19:12:52.628Z,37
2018-03-01T19:13:51.201Z,37
2018-03-01T19:14:49.776Z,37
2018-03-01T19:15:48.347Z,37
2018-03-01T19:16:46.921Z,37
2018-03-01T19:17:45.492Z,37
2018-03-01T19:18:44.170Z,37
2018-03-01T19:19:42.743Z,37
2018-03-01T19:20:41.317Z,37
2018-03-01T19:21:39.891Z,36
2018-03-01T19:22:38.462Z,35
2018-03-01T19:23:37.055Z,35
2018-03-01T19:24:35.711Z,35
2018-03-01T19:25:34.284Z,35
2018-03-01T19:26:32.858Z,35
2018-03-01T19:27:31.431Z,35
2018-03-01T19:28:30.108Z,35
2018-03-01T19:29:28.578Z,35
2018-03-01T19:30:27.254Z,35
2018-03-01T19:31:25.827Z,34
2018-03-01T19:32:24.399Z,33
2018-03-01T19:33:23.075Z,33
2018-03-01T19:34:21.546Z,32
2018-03-01T19:35:20.120Z,32
2018-03-01T19:36:18.798Z,32
2018-03-01T19:37:17.369Z,32
2018-03-01T19:38:15.942Z,33
2018-03-01T19:39:14.514Z,33
2018-03-01T19:40:13.087Z,33
2018-03-01T19:41:11.669Z,33
2018-03-01T19:42:10.338Z,33
2018-03-01T19:43:09.017Z,33
2018-03-01T19:44:07.484Z,33
2018-03-01T19:45:06.056Z,33
2018-03-01T19:46:04.629Z,33
2018-03-01T19:47:03.203Z,33
2018-03-01T19:48:01.880Z,33
2018-03-01T19:49:00.454Z,33
2018-03-01T19:49:59.025Z,33
2018-03-01T19:50:57.598Z,33
2018-03-01T19:51:56.173Z,33
2018-03-01T19:52:54.848Z,33
2018-03-01T19:53:53.420Z,33
2018-03-01T19:54:51.994Z,33
2018-03-01T19:55:50.774Z,33
2018-03-01T19:56:49.144Z,33
2018-03-01T19:57:47.714Z,33
2018-03-01T19:58:46.390Z,33
2018-03-01T19:59:44.966Z,33
2018-03-01T20:00:43.536Z,33
2018-03-01T20:01:42.415Z,33
2018-03-01T20:02:40.681Z,33
2018-03-01T20:03:39.256Z,33
2018-03-01T20:04:37.932Z,34
2018-03-01T20:05:36.508Z,34
2018-03-01T20:06:35.077Z,34
2018-03-01T20:07:33.649Z,34
2018-03-01T20:08:32.227Z,34
2018-03-01T20:09:30.797Z,34
2018-03-01T20:10:29.474Z,34
2018-03-01T20:11:28.050Z,34
2018-03-01T20:12:26.620Z,34
2018-03-01T20:13:25.193Z,34
2018-03-01T20:14:23.867Z,34
2018-03-01T20:15:22.340Z,34
2018-03-01T20:16:21.015Z,34
2018-03-01T20:17:19.589Z,34
2018-03-01T20:18:18.162Z,34
2018-03-01T20:19:16.736Z,34
2018-03-01T20:20:15.411Z,34
2018-03-01T20:21:13.882Z,34
2018-03-01T20:22:12.557Z,34
2018-03-01T20:23:11.131Z,34
2018-03-01T20:24:09.704Z,34
2018-03-01T20:25:08.277Z,34
2018-03-01T20:26:06.850Z,34
2018-03-01T20:27:05.423Z,34
2018-03-01T20:28:04.100Z,34
2018-03-01T20:29:02.672Z,34
2018-03-01T20:30:01.303Z,34
2018-03-01T20:30:59.920Z,34
2018-03-01T20:31:58.392Z,34
2018-03-01T20:32:56.967Z,34
2018-03-01T20:33:55.640Z,34
2018-03-01T20:34:54.215Z,34
2018-03-01T20:35:52.810Z,34
2018-03-01T20:36:51.361Z,34
2018-03-01T20:37:49.933Z,34
2018-03-01T20:38:48.608Z,34
2018-03-01T20:39:47.187Z,34
2018-03-01T20:40:45.859Z,34
2018-03-01T20:41:44.330Z,34
2018-03-01T20:42:43.004Z,34
2018-03-01T20:43:41.476Z,34
2018-03-01T20:44:40.150Z,34
2018-03-01T20:45:38.724Z,34
2018-03-01T20:46:37.297Z,34
2018-03-01T20:47:35.869Z,34
2018-03-01T20:48:34.459Z,34
2018-03-01T20:49:33.120Z,34
2018-03-01T20:50:31.698Z,34
2018-03-01T20:51:30.268Z,34
2018-03-01T20:52:28.839Z,34
2018-03-01T20:53:27.415Z,35
2018-03-01T20:54:25.985Z,35
2018-03-01T20:55:24.664Z,35
2018-03-01T20:56:23.235Z,35
2018-03-01T20:57:21.807Z,35
2018-03-01T20:58:20.383Z,35
2018-03-01T20:59:19.158Z,35
2018-03-01T21:00:17.528Z,35
2018-03-01T21:01:16.107Z,35
2018-03-01T21:02:14.777Z,35
2018-03-01T21:03:13.351Z,35
2018-03-01T21:04:11.925Z,35
2018-03-01T21:05:10.497Z,35
2018-03-01T21:06:09.068Z,35
2018-03-01T21:07:07.643Z,35
2018-03-01T21:08:06.319Z,35
2018-03-01T21:09:04.891Z,35
2018-03-01T21:10:03.465Z,35
2018-03-01T21:11:02.038Z,35
2018-03-01T21:12:00.612Z,35
2018-03-01T21:12:59.184Z,35
2018-03-01T21:13:57.965Z,35
2018-03-01T21:14:56.434Z,35
2018-03-01T21:15:55.006Z,35
2018-03-01T21:16:53.580Z,35
2018-03-01T21:17:52.153Z,35
2018-03-01T21:18:50.828Z,35
2018-03-01T21:19:49.402Z,35
2018-03-01T21:20:47.976Z,35
2018-03-01T21:21:46.579Z,35
2018-03-01T21:22:45.122Z,35
2018-03-01T21:23:43.695Z,35
2018-03-01T21:24:42.370Z,35
2018-03-01T21:25:40.943Z,35
2018-03-01T21:26:39.517Z,35
2018-03-01T21:27:38.090Z,35
2018-03-01T21:28:36.679Z,35
2018-03-01T21:29:35.236Z,35
2018-03-01T21:30:33.928Z,35
2018-03-01T21:31:32.589Z,35
2018-03-01T21:32:31.061Z,35
2018-03-01T21:33:29.633Z,35
2018-03-01T21:34:28.326Z,35
2018-03-01T21:35:26.991Z,35
2018-03-01T21:36:25.560Z,35
2018-03-01T21:37:24.232Z,35
2018-03-01T21:38:22.601Z,35
2018-03-01T21:39:21.175Z,35
2018-03-01T21:40:19.746Z,35
2018-03-01T21:41:18.321Z,35
2018-03-01T21:42:17.099Z,35
2018-03-01T21:43:15.572Z,35
2018-03-01T21:44:14.145Z,35
2018-03-01T21:45:12.715Z,35
2018-03-01T21:46:11.288Z,35
2018-03-01T21:47:09.860Z,35
2018-03-01T21:48:08.538Z,35
2018-03-01T21:49:07.113Z,35
2018-03-01T21:50:05.686Z,35
2018-03-01T21:51:04.258Z,35
2018-03-01T21:52:02.830Z,35
2018-03-01T21:53:01.405Z,36
2018-03-01T21:54:00.082Z,36
2018-03-01T21:54:58.680Z,36
2018-03-01T21:55:57.227Z,36
2018-03-01T21:56:55.798Z,36
2018-03-01T21:57:54.373Z,36
2018-03-01T21:58:53.053Z,36
2018-03-01T21:59:51.622Z,36
2018-03-01T22:00:50.195Z,36
2018-03-01T22:01:48.768Z,36
2018-03-01T22:02:47.342Z,36
2018-03-01T22:03:46.024Z,36
2018-03-01T22:04:44.590Z,36
2018-03-01T22:05:43.163Z,36
2018-03-01T22:06:41.738Z,36
2018-03-01T22:07:40.309Z,36
2018-03-01T22:08:38.882Z,36
2018-03-01T22:09:37.456Z,36
2018-03-01T22:10:36.234Z,36
2018-03-01T22:11:34.706Z,36
2018-03-01T22:12:33.286Z,36
2018-03-01T22:13:31.854Z,36
2018-03-01T22:14:30.527Z,36
2018-03-01T22:15:29.004Z,36
2018-03-01T22:16:27.674Z,36
2018-03-01T22:17:26.249Z,36
2018-03-01T22:18:24.821Z,36
2018-03-01T22:19:23.394Z,36
2018-03-01T22:20:21.967Z,36
2018-03-01T22:21:20.539Z,36
2018-03-01T22:22:19.217Z,36
2018-03-01T22:23:17.790Z,36
2018-03-01T22:24:16.362Z,36
2018-03-01T22:25:14.935Z,36
2018-03-01T22:26:13.509Z,36
2018-03-01T22:27:12.082Z,36
2018-03-01T22:28:10.760Z,36
2018-03-01T22:29:09.330Z,36
2018-03-01T22:30:07.904Z,36
2018-03-01T22:31:06.477Z,36
2018-03-01T22:32:05.152Z,36
2018-03-01T22:33:03.623Z,36
2018-03-01T22:34:02.300Z,36
2018-03-01T22:35:00.873Z,36
2018-03-01T22:35:59.446Z,36
2018-03-01T22:36:58.019Z,36
2018-03-01T22:37:56.592Z,36
2018-03-01T22:38:55.272Z,36
2018-03-01T22:39:53.841Z,36
2018-03-01T22:40:52.412Z,36
2018-03-01T22:41:50.989Z,36
2018-03-01T22:42:49.560Z,36
2018-03-01T22:43:48.134Z,36
2018-03-01T22:44:46.811Z,36
2018-03-01T22:45:45.384Z,36
2018-03-01T22:46:43.956Z,36
2018-03-01T22:47:42.529Z,36
2018-03-01T22:48:41.103Z,36
2018-03-01T22:49:39.677Z,36
2018-03-01T22:50:38.353Z,36
2018-03-01T22:51:36.926Z,36
2018-03-01T22:52:35.500Z,36
2018-03-01T22:53:34.174Z,36
2018-03-01T22:54:32.645Z,36
2018-03-01T22:55:31.218Z,36
2018-03-01T22:56:29.896Z,36
2018-03-01T22:57:28.467Z,36
2018-03-01T22:58:27.040Z,36
2018-03-01T22:59:25.614Z,36
2018-03-01T23:00:24.187Z,36
2018-03-01T23:01:22.760Z,36
2018-03-01T23:02:21.435Z,37
2018-03-01T23:03:20.009Z,37
2018-03-01T23:04:18.581Z,37
2018-03-01T23:05:17.155Z,37
2018-03-01T23:06:15.728Z,37
2018-03-01T23:07:14.300Z,37
2018-03-01T23:08:12.978Z,37
2018-03-01T23:09:11.554Z,37
2018-03-01T23:10:10.124Z,37
2018-03-01T23:11:08.697Z,37
2018-03-01T23:12:07.373Z,37
2018-03-01T23:13:05.946Z,37
2018-03-01T23:14:04.519Z,37
2018-03-01T23:15:03.095Z,37
2018-03-01T23:16:01.669Z,37
2018-03-01T23:17:00.341Z,37
2018-03-01T23:17:58.811Z,37
2018-03-01T23:18:57.494Z,37
2018-03-01T23:19:56.061Z,37
2018-03-01T23:20:54.635Z,37
2018-03-01T23:21:53.208Z,37
2018-03-01T23:22:51.780Z,37
2018-03-01T23:23:50.459Z,37
2018-03-01T23:24:49.030Z,37
2018-03-01T23:25:47.602Z,37
2018-03-01T23:26:46.175Z,37
2018-03-01T23:27:44.749Z,37
2018-03-01T23:28:43.322Z,37
2018-03-01T23:29:41.896Z,37
2018-03-01T23:30:40.571Z,38
2018-03-01T23:31:39.145Z,38
2018-03-01T23:32:37.722Z,38
2018-03-01T23:33:36.291Z,38
2018-03-01T23:34:34.865Z,38
2018-03-01T23:35:33.437Z,38
2018-03-01T23:36:32.113Z,38
2018-03-01T23:37:30.689Z,38
2018-03-01T23:38:29.261Z,38
2018-03-01T23:39:27.840Z,38
2018-03-01T23:40:26.406Z,38
2018-03-01T23:41:24.978Z,38
2018-03-01T23:42:23.655Z,38
2018-03-01T23:43:22.227Z,38
2018-03-01T23:44:20.801Z,38
2018-03-01T23:45:19.374Z,38
2018-03-01T23:46:17.948Z,38
2018-03-01T23:47:16.520Z,38
2018-03-01T23:48:15.197Z,38
2018-03-01T23:49:13.771Z,38
2018-03-01T23:50:12.344Z,38
2018-03-01T23:51:10.915Z,38
2018-03-01T23:52:09.492Z,38
2018-03-01T23:53:08.063Z,38
2018-03-01T23:54:06.739Z,38
2018-03-01T23:55:05.312Z,38
2018-03-01T23:56:03.885Z,38
2018-03-01T23:57:02.459Z,38
2018-03-01T23:58:01.032Z,38
2018-03-01T23:58:59.707Z,38
2018-03-01T23:59:58.281Z,38
